Atoka, TN

1:50 AM CDT on September 02, 2014 (GMT -0500)
West Memphis Municipal | Change Station
CLOSE
Current Station
Airport
Location: West Memphis,
Elevation: 213 ft
Nearby Weather Stations

Elev 213 ft 35.14 °N, 90.23 °W | Updated 57 minutes ago

Clear
Clear
77 °F
Feels Like 77 °F
N
9
Wind Variable Wind from South

Today
High -- | Low -- °F
--% Chance of Precip.
Yesterday
High -- | Low -- °F
Precip. -- in
6:32 AM 7:24 PM
Waxing Crescent, 48% visible
Pressure 29.96 in
Visibility 10.0 miles
Clouds Clear
Dew Point 74 °F
Humidity 90%
Rainfall 0.00 in
Snow Depth Not available.
UV 0 out of 12
Pollen 10.90 out of 12
Ozone Good
PM2.5 Good
Flu Activity Not available.
METAR KAWM 020553Z AUTO 19008KT 10SM CLR 25/23 A2997 RMK AO2 SLP144 T02500233 10294 20250 403280239 51010 $

More Conditions Fewer Conditions

Pressure 29.96 in
Visibility 10.0 miles
Clouds Clear
Dew Point 74 °F
Humidity 90%
Rainfall 0.00 in
Snow Depth Not available.
UV 0 out of 12
Pollen 10.90 out of 12
Ozone Good
PM2.5 Good
Flu Activity Not available.
METAR KAWM 020553Z AUTO 19008KT 10SM CLR 25/23 A2997 RMK AO2 SLP144 T02500233 10294 20250 403280239 51010 $

More Conditions Fewer Conditions

10-Day Weather Forecast

Almanac

Astronomy

Sep. 02, 2014 Rise Set
Actual Time 6:32 AM CDT 7:24 PM CDT
Civil Twilight 6:06 AM CDT 7:50 PM CDT
Nautical Twilight 5:35 AM CDT 8:21 PM CDT
Astronomical Twilight 5:03 AM CDT 8:52 PM CDT
Moon 2:01 PM CDT No Moon Set
Length of Visible Light 13h 44m
Length of Day
12h 52m
Tomorrow will be 2m 9s shorter.
Waxing Crescent, 48% of the Moon is Illuminated
Today
Waxing Crescent
Sep 2
First Quarter
Sep 8
Full
Sep 15
Last Quarter
Sep 24
New

Today's Extremes

State Highs State Lows

Community

WunderPhotos

Upload Photos

1,749,589 photos uploaded!

WunderBlogs® & News

Nearby

Air Quality

  Air Quality AQ Index Pollutant
Yesterday Moderate
PM2.5
Yesterday Good
OZONE
Current Good
PM2.5
Current Good
OZONE
Tuesday Moderate
PM2.5
Tuesday Good
OZONE
Wednesday Moderate
PM2.5
Wednesday Good
OZONE

Snow Depth

Station Depth Elevation
No new snow has been reported.

Earthquake Activity

City Distance Mag. Time & Date
Tiptonville, Tennessee 68 miles 2.9 11:19 PM CDT
2014-08-31
Minimum magnitude displayed is 2.5.

Coastal Water Temperatures

Place Temperature
No Stations Reporting

Nearby Weather Stations